createdAt,value
2023-03-04T00:00:57.032Z,74.51
2023-03-04T00:03:25.088Z,75.25
2023-03-04T00:05:54.715Z,75.58
2023-03-04T00:08:26.087Z,75.10
2023-03-04T00:10:54.021Z,75.37
2023-03-04T00:13:22.428Z,74.75
2023-03-04T00:15:50.599Z,75.54
2023-03-04T00:18:18.598Z,76.01
2023-03-04T00:20:46.532Z,76.05
2023-03-04T00:23:16.129Z,76.04
2023-03-04T00:25:44.079Z,76.67
2023-03-04T00:28:12.071Z,76.12
2023-03-04T00:30:40.439Z,75.08
2023-03-04T00:33:08.684Z,75.06
2023-03-04T00:35:36.749Z,74.85
2023-03-04T00:38:05.063Z,74.94
2023-03-04T00:40:34.483Z,76.13
2023-03-04T00:43:02.557Z,77.08
2023-03-04T00:45:30.665Z,76.89
2023-03-04T00:47:58.637Z,76.91
2023-03-04T00:50:26.553Z,75.83
2023-03-04T00:52:54.527Z,75.35
2023-03-04T00:55:22.460Z,75.68
2023-03-04T00:57:52.032Z,75.65
2023-03-04T01:00:20.640Z,74.89
2023-03-04T01:02:48.547Z,75.06
2023-03-04T01:05:16.865Z,75.67
2023-03-04T01:07:45.057Z,75.09
2023-03-04T01:10:15.931Z,74.57
2023-03-04T01:12:46.822Z,74.41
2023-03-04T01:15:16.237Z,74.52
2023-03-04T01:17:44.488Z,75.55
2023-03-04T01:20:13.997Z,75.58
2023-03-04T01:22:43.020Z,76.95
2023-03-04T01:25:11.748Z,76.44
2023-03-04T01:27:39.874Z,76.03
2023-03-04T01:30:09.091Z,76.78
2023-03-04T01:32:38.697Z,76.44
2023-03-04T01:35:07.639Z,76.22
2023-03-04T01:37:36.245Z,75.59
2023-03-04T01:40:05.513Z,75.28
2023-03-04T01:42:35.991Z,75.10
2023-03-04T01:45:04.731Z,75.32
2023-03-04T01:47:34.615Z,74.96
2023-03-04T01:50:08.649Z,75.65
2023-03-04T01:52:36.693Z,75.79
2023-03-04T01:55:11.944Z,75.50
2023-03-04T01:57:40.768Z,75.32
2023-03-04T02:00:31.950Z,76.03
2023-03-04T02:03:01.930Z,76.95
2023-03-04T02:05:34.394Z,76.35
2023-03-04T02:08:04.737Z,76.15
2023-03-04T02:10:33.655Z,76.94
2023-03-04T02:13:02.394Z,76.41
2023-03-04T02:15:31.580Z,75.92
2023-03-04T02:18:00.276Z,76.30
2023-03-04T02:20:43.717Z,76.10
2023-03-04T02:23:19.122Z,76.12
2023-03-04T02:25:51.883Z,76.54
2023-03-04T02:28:22.102Z,76.58
2023-03-04T02:30:51.191Z,76.77
2023-03-04T02:33:20.824Z,77.00
2023-03-04T02:35:49.210Z,75.93
2023-03-04T02:38:17.368Z,76.58
2023-03-04T02:40:49.766Z,76.66
2023-03-04T02:43:18.000Z,76.78
2023-03-04T02:45:49.737Z,77.57
2023-03-04T02:48:20.972Z,77.00
2023-03-04T02:50:51.493Z,76.27
2023-03-04T02:53:21.303Z,76.57
2023-03-04T02:55:50.344Z,77.05
2023-03-04T02:58:20.303Z,76.63
2023-03-04T03:00:50.654Z,76.77
2023-03-04T03:03:18.853Z,77.05
2023-03-04T03:05:46.883Z,76.45
2023-03-04T03:08:15.730Z,78.32
2023-03-04T03:10:44.211Z,78.53
2023-03-04T03:13:12.803Z,77.99
2023-03-04T03:15:42.437Z,77.48
2023-03-04T03:18:12.942Z,77.98
2023-03-04T03:20:43.692Z,77.67
2023-03-04T03:23:11.822Z,78.05
2023-03-04T03:25:40.056Z,78.24
2023-03-04T03:28:08.180Z,78.24
2023-03-04T03:30:36.394Z,78.07
2023-03-04T03:33:07.768Z,78.41
2023-03-04T03:35:37.251Z,77.68
2023-03-04T03:38:05.283Z,78.03
2023-03-04T03:40:33.123Z,79.20
2023-03-04T03:43:01.104Z,79.80
2023-03-04T03:45:29.191Z,79.15
2023-03-04T03:47:57.449Z,79.52
2023-03-04T03:50:25.392Z,79.28
2023-03-04T03:52:55.122Z,79.54
2023-03-04T03:55:25.289Z,80.34
2023-03-04T03:57:55.990Z,79.86
2023-03-04T04:00:24.348Z,79.26
2023-03-04T04:02:53.576Z,79.24
2023-03-04T04:05:21.532Z,79.55
2023-03-04T04:07:49.538Z,79.32
2023-03-04T04:10:20.524Z,79.98
2023-03-04T04:12:48.531Z,81.29
2023-03-04T04:15:16.716Z,80.66
2023-03-04T04:17:44.802Z,81.06
2023-03-04T04:20:13.279Z,80.08
2023-03-04T04:22:41.491Z,80.04
2023-03-04T04:25:11.733Z,79.96
2023-03-04T04:27:41.353Z,79.16
2023-03-04T04:30:11.163Z,79.67
2023-03-04T04:32:39.219Z,79.54
2023-03-04T04:35:10.904Z,79.94
2023-03-04T04:37:41.336Z,79.57
2023-03-04T04:40:10.603Z,80.40
2023-03-04T04:42:38.840Z,80.42
2023-03-04T04:45:10.187Z,80.29
2023-03-04T04:47:38.454Z,80.04
2023-03-04T04:50:07.521Z,79.79
2023-03-04T04:52:36.050Z,79.18
2023-03-04T04:55:05.837Z,79.45
2023-03-04T04:57:34.629Z,79.59
2023-03-04T05:00:02.606Z,80.39
2023-03-04T05:02:31.872Z,80.79
2023-03-04T05:04:59.810Z,80.88
2023-03-04T05:07:27.776Z,82.53
2023-03-04T05:09:55.694Z,83.54
2023-03-04T05:12:23.748Z,85.42
2023-03-04T05:14:51.907Z,84.68
2023-03-04T05:17:20.676Z,83.29
2023-03-04T05:19:50.148Z,82.68
2023-03-04T05:22:18.059Z,81.88
2023-03-04T05:24:45.975Z,81.65
2023-03-04T05:27:13.950Z,81.11
2023-03-04T05:29:42.780Z,81.55
2023-03-04T05:32:10.998Z,81.24
2023-03-04T05:34:38.935Z,82.71
2023-03-04T05:37:08.352Z,83.02
2023-03-04T05:39:36.390Z,83.03
2023-03-04T05:42:04.373Z,82.21
2023-03-04T05:44:32.324Z,81.83
2023-03-04T05:47:00.258Z,80.63
2023-03-04T05:49:28.191Z,80.63
2023-03-04T05:51:55.980Z,80.02
2023-03-04T05:54:25.293Z,81.14
2023-03-04T05:56:53.201Z,80.84
2023-03-04T05:59:22.166Z,81.20
2023-03-04T06:01:50.385Z,81.17
2023-03-04T06:04:19.125Z,80.49
2023-03-04T06:06:47.583Z,80.80
2023-03-04T06:09:15.433Z,80.86
2023-03-04T06:11:44.757Z,80.40
2023-03-04T06:14:12.758Z,81.03
2023-03-04T06:16:40.791Z,80.98
2023-03-04T06:19:08.678Z,82.32
2023-03-04T06:21:36.707Z,82.79
2023-03-04T06:24:04.786Z,84.11
2023-03-04T06:26:35.053Z,84.15
2023-03-04T06:29:06.405Z,84.62
2023-03-04T06:31:34.530Z,83.01
2023-03-04T06:34:02.490Z,82.77
2023-03-04T06:36:30.554Z,82.28
2023-03-04T06:38:58.434Z,81.67
2023-03-04T06:41:26.362Z,82.12
2023-03-04T06:43:56.714Z,81.30
2023-03-04T06:46:28.211Z,80.26
2023-03-04T06:48:58.064Z,80.89
2023-03-04T06:51:26.411Z,80.67
2023-03-04T06:53:54.692Z,80.45
2023-03-04T06:56:22.541Z,82.13
2023-03-04T06:58:50.550Z,81.73
2023-03-04T07:01:21.168Z,82.01
2023-03-04T07:03:52.511Z,83.23
2023-03-04T07:06:22.396Z,83.27
2023-03-04T07:08:52.154Z,83.49
2023-03-04T07:11:23.395Z,82.43
2023-03-04T07:13:53.393Z,82.34
2023-03-04T07:16:24.569Z,83.84
2023-03-04T07:18:54.125Z,85.34
2023-03-04T07:21:22.931Z,85.33
2023-03-04T07:23:52.668Z,85.81
2023-03-04T07:26:20.607Z,86.25
2023-03-04T07:28:52.308Z,85.94
2023-03-04T07:31:27.667Z,85.26
2023-03-04T07:34:00.265Z,85.76
2023-03-04T07:36:29.207Z,86.06
2023-03-04T07:38:57.741Z,87.91
2023-03-04T07:41:28.317Z,87.21
2023-03-04T07:43:59.955Z,87.97
2023-03-04T07:46:31.871Z,87.87
2023-03-04T07:49:02.481Z,86.51
2023-03-04T07:51:30.768Z,85.09
2023-03-04T07:54:00.917Z,85.57
2023-03-04T07:56:30.778Z,85.96
2023-03-04T07:58:59.169Z,85.90
2023-03-04T08:01:29.863Z,86.71
2023-03-04T08:03:58.266Z,86.98
2023-03-04T08:06:28.173Z,86.02
2023-03-04T08:08:59.331Z,85.39
2023-03-04T08:11:28.706Z,84.77
2023-03-04T08:13:56.544Z,85.34
2023-03-04T08:16:26.678Z,84.29
2023-03-04T08:18:56.962Z,84.07
2023-03-04T08:21:28.247Z,85.88
2023-03-04T08:23:58.600Z,85.36
2023-03-04T08:26:29.037Z,86.50
2023-03-04T08:28:58.078Z,85.77
2023-03-04T08:31:27.139Z,86.71
2023-03-04T08:33:56.804Z,87.61
2023-03-04T08:36:25.530Z,88.55
2023-03-04T08:38:55.037Z,88.17
2023-03-04T08:41:25.661Z,86.96
2023-03-04T08:43:53.754Z,86.28
2023-03-04T08:46:22.643Z,85.70
2023-03-04T08:48:51.371Z,86.69
2023-03-04T08:51:21.927Z,85.65
2023-03-04T08:53:50.176Z,83.85
2023-03-04T08:56:20.665Z,83.90
2023-03-04T08:58:48.621Z,82.23
2023-03-04T09:01:17.576Z,82.71
2023-03-04T09:03:45.646Z,82.82
2023-03-04T09:06:16.387Z,83.39
2023-03-04T09:08:44.689Z,82.06
2023-03-04T09:11:12.840Z,81.18
2023-03-04T09:13:42.200Z,81.42
2023-03-04T09:16:11.218Z,80.25
2023-03-04T09:18:40.163Z,80.14
2023-03-04T09:21:09.329Z,79.82
2023-03-04T09:23:37.329Z,79.59
2023-03-04T09:26:15.654Z,79.49
2023-03-04T09:28:44.951Z,80.39
2023-03-04T09:31:15.457Z,78.81
2023-03-04T09:33:43.614Z,81.01
2023-03-04T09:36:13.037Z,79.37
2023-03-04T09:38:42.093Z,78.39
2023-03-04T09:41:13.794Z,78.17
2023-03-04T09:43:42.406Z,76.58
2023-03-04T09:46:17.065Z,76.28
2023-03-04T09:48:47.756Z,76.09
2023-03-04T09:51:23.516Z,76.17
2023-03-04T09:54:09.695Z,73.59
2023-03-04T09:56:40.777Z,73.86
2023-03-04T09:59:18.406Z,74.40
2023-03-04T10:01:53.134Z,74.47
2023-03-04T10:04:32.500Z,74.15
2023-03-04T10:07:02.167Z,74.05
2023-03-04T10:09:34.591Z,72.68
2023-03-04T10:12:05.596Z,71.44
2023-03-04T10:14:39.966Z,73.17
2023-03-04T10:17:15.429Z,71.85
2023-03-04T10:19:53.046Z,69.96
2023-03-04T10:22:30.038Z,71.17
2023-03-04T10:24:59.799Z,70.27
2023-03-04T10:27:30.319Z,71.17
2023-03-04T10:30:00.763Z,69.88
2023-03-04T10:32:30.177Z,69.41
2023-03-04T10:34:58.794Z,69.43
2023-03-04T10:37:46.308Z,69.26
2023-03-04T10:40:23.234Z,68.56
2023-03-04T10:42:52.197Z,68.85
2023-03-04T10:45:26.330Z,69.79
2023-03-04T10:47:58.921Z,71.02
2023-03-04T10:50:30.114Z,71.47
2023-03-04T10:52:58.568Z,68.94
2023-03-04T10:55:29.669Z,68.79
2023-03-04T10:58:03.888Z,68.09
2023-03-04T11:00:33.944Z,67.68
2023-03-04T11:03:29.028Z,67.89
2023-03-04T11:06:17.618Z,67.96
2023-03-04T11:08:47.581Z,69.40
2023-03-04T11:11:29.950Z,70.31
2023-03-04T11:14:02.748Z,69.07
2023-03-04T11:16:34.918Z,70.09
2023-03-04T11:19:13.312Z,69.45
2023-03-04T11:21:42.756Z,70.46
2023-03-04T11:24:28.205Z,70.56
2023-03-04T11:27:04.965Z,69.56
2023-03-04T11:29:39.358Z,70.20
2023-03-04T11:32:12.971Z,71.24
2023-03-04T11:34:51.014Z,69.02
2023-03-04T11:37:27.537Z,67.66
2023-03-04T11:40:09.335Z,67.50
2023-03-04T11:43:08.060Z,65.70
2023-03-04T11:46:12.855Z,65.31
2023-03-04T11:49:08.878Z,66.49
2023-03-04T11:52:03.637Z,65.55
2023-03-04T11:54:53.267Z,67.18
2023-03-04T11:57:42.547Z,66.95
2023-03-04T12:00:38.861Z,69.59
2023-03-04T12:04:04.951Z,68.65
2023-03-04T12:06:59.326Z,68.78
2023-03-04T12:09:54.258Z,68.95
2023-03-04T12:12:53.080Z,68.76
2023-03-04T12:15:45.625Z,69.12
2023-03-04T12:18:46.616Z,69.64
2023-03-04T12:22:17.977Z,68.88
2023-03-04T12:25:19.605Z,68.49
2023-03-04T12:28:07.418Z,68.46
2023-03-04T12:31:07.353Z,68.52
2023-03-04T12:34:11.206Z,69.36
2023-03-04T12:37:02.305Z,68.56
2023-03-04T12:40:11.921Z,68.08
2023-03-04T12:43:08.453Z,67.36
2023-03-04T12:46:03.835Z,69.62
2023-03-04T12:48:59.455Z,69.00
2023-03-04T12:52:06.521Z,68.98
2023-03-04T12:58:33.406Z,70.63
2023-03-04T13:01:31.075Z,69.78
2023-03-04T13:04:19.549Z,67.93
2023-03-04T13:07:12.331Z,66.75
2023-03-04T13:10:15.062Z,67.75
2023-03-04T13:12:58.244Z,66.33
2023-03-04T13:15:46.912Z,69.30
2023-03-04T13:18:42.803Z,69.68
2023-03-04T13:21:36.700Z,69.34
2023-03-04T13:24:52.348Z,67.82
2023-03-04T13:27:53.754Z,67.20
2023-03-04T13:31:16.803Z,66.34
2023-03-04T13:34:12.258Z,66.54
2023-03-04T13:37:09.418Z,66.90
2023-03-04T13:40:31.234Z,66.67
2023-03-04T13:43:44.685Z,66.81
2023-03-04T13:46:46.214Z,67.45
2023-03-04T13:49:32.250Z,67.88
2023-03-04T13:52:54.375Z,67.69
2023-03-04T13:55:49.720Z,67.50
2023-03-04T13:58:33.344Z,67.92
2023-03-04T14:01:27.889Z,66.96
2023-03-04T14:04:04.930Z,68.59
2023-03-04T14:06:49.446Z,67.97
2023-03-04T14:09:29.437Z,67.21
2023-03-04T14:12:07.730Z,66.43
2023-03-04T14:14:56.658Z,67.72
2023-03-04T14:17:33.979Z,68.13
2023-03-04T14:20:27.991Z,68.04
2023-03-04T14:23:03.559Z,69.12
2023-03-04T14:25:49.048Z,68.10
2023-03-04T14:28:21.734Z,69.44
2023-03-04T14:30:57.284Z,68.97
2023-03-04T14:33:29.621Z,69.24
2023-03-04T14:36:01.050Z,68.80
2023-03-04T14:38:33.069Z,69.03
2023-03-04T14:41:06.949Z,68.86
2023-03-04T14:43:41.151Z,69.16
2023-03-04T14:46:12.819Z,69.96
2023-03-04T14:48:46.279Z,69.16
2023-03-04T14:51:30.487Z,68.38
2023-03-04T14:54:00.150Z,67.66
2023-03-04T14:56:29.859Z,67.68
2023-03-04T14:58:59.577Z,67.68
2023-03-04T15:01:34.427Z,68.64
2023-03-04T15:04:06.278Z,68.28
2023-03-04T15:06:40.678Z,68.73
2023-03-04T15:09:22.055Z,68.51
2023-03-04T15:11:52.656Z,69.22
2023-03-04T15:14:43.682Z,69.93
2023-03-04T15:17:25.794Z,70.60
2023-03-04T15:20:02.042Z,70.07
2023-03-04T15:22:30.207Z,70.68
2023-03-04T15:25:00.831Z,71.27
2023-03-04T15:27:31.515Z,69.55
2023-03-04T15:30:02.294Z,70.78
2023-03-04T15:32:31.497Z,70.04
2023-03-04T15:35:00.569Z,69.89
2023-03-04T15:37:30.570Z,69.87
2023-03-04T15:40:00.188Z,68.17
2023-03-04T15:42:29.040Z,67.91
2023-03-04T15:44:57.966Z,67.10
2023-03-04T15:47:25.774Z,69.29
2023-03-04T15:49:53.693Z,69.25
2023-03-04T15:52:26.066Z,69.25
2023-03-04T15:54:55.187Z,69.74
2023-03-04T15:57:27.573Z,69.17
2023-03-04T15:59:55.608Z,68.49
2023-03-04T16:02:25.068Z,67.93
2023-03-04T16:04:53.165Z,68.46
2023-03-04T16:07:25.573Z,67.92
2023-03-04T16:09:56.854Z,68.38
2023-03-04T16:12:28.718Z,68.52
2023-03-04T16:14:56.873Z,69.37
2023-03-04T16:17:25.085Z,68.96
2023-03-04T16:19:52.891Z,68.83
2023-03-04T16:22:24.527Z,69.64
2023-03-04T16:24:54.717Z,68.89
2023-03-04T16:27:24.519Z,69.36
2023-03-04T16:29:53.741Z,68.96
2023-03-04T16:32:21.685Z,69.59
2023-03-04T16:34:51.928Z,69.83
2023-03-04T16:37:21.580Z,70.03
2023-03-04T16:39:50.734Z,69.83
2023-03-04T16:42:22.843Z,70.83
2023-03-04T16:44:51.128Z,69.48
2023-03-04T16:47:20.777Z,69.92
2023-03-04T16:49:49.175Z,70.00
2023-03-04T16:52:24.855Z,70.01
2023-03-04T16:54:55.590Z,69.55
2023-03-04T16:57:23.513Z,70.65
2023-03-04T16:59:52.472Z,70.48
2023-03-04T17:02:26.674Z,70.18
2023-03-04T17:04:56.517Z,70.16
2023-03-04T17:07:24.305Z,70.13
2023-03-04T17:09:53.057Z,69.80
2023-03-04T17:12:20.880Z,68.11
2023-03-04T17:14:49.314Z,68.38
2023-03-04T17:17:21.887Z,69.38
2023-03-04T17:19:51.763Z,69.56
2023-03-04T17:22:20.099Z,70.50
2023-03-04T17:24:49.795Z,68.84
2023-03-04T17:27:18.541Z,70.62
2023-03-04T17:29:47.757Z,69.78
2023-03-04T17:32:16.154Z,70.14
2023-03-04T17:34:44.807Z,70.76
2023-03-04T17:37:15.380Z,70.91
2023-03-04T17:39:43.634Z,70.23
2023-03-04T17:42:11.701Z,70.05
2023-03-04T17:44:40.118Z,70.23
2023-03-04T17:47:33.365Z,70.12
2023-03-04T17:50:09.537Z,69.80
2023-03-04T17:52:41.449Z,70.02
2023-03-04T17:55:12.527Z,70.17
2023-03-04T17:57:40.576Z,70.25
2023-03-04T18:00:12.898Z,70.35
2023-03-04T18:03:00.324Z,72.05
2023-03-04T18:05:28.743Z,72.02
2023-03-04T18:08:00.487Z,70.76
2023-03-04T18:10:28.611Z,70.96
2023-03-04T18:12:56.749Z,70.81
2023-03-04T18:15:24.830Z,70.67
2023-03-04T18:17:53.206Z,71.07
2023-03-04T18:20:25.025Z,70.58
2023-03-04T18:23:22.772Z,69.72
2023-03-04T18:25:58.902Z,69.99
2023-03-04T18:28:27.042Z,70.54
2023-03-04T18:30:56.951Z,70.63
2023-03-04T18:33:29.166Z,70.13
2023-03-04T18:36:05.952Z,70.33
2023-03-04T18:38:36.555Z,69.77
2023-03-04T18:41:09.361Z,70.04
2023-03-04T18:43:38.523Z,70.56
2023-03-04T18:46:18.359Z,69.76
2023-03-04T18:49:10.174Z,70.10
2023-03-04T18:51:46.394Z,70.20
2023-03-04T18:54:36.769Z,69.90
2023-03-04T18:57:14.664Z,69.82
2023-03-04T19:00:12.522Z,69.38
2023-03-04T19:02:47.948Z,69.49
2023-03-04T19:05:20.145Z,70.01
2023-03-04T19:07:48.928Z,70.15
2023-03-04T19:10:21.217Z,69.78
2023-03-04T19:12:49.460Z,70.22
2023-03-04T19:15:18.397Z,69.95
2023-03-04T19:17:46.697Z,70.02
2023-03-04T19:20:16.552Z,69.67
2023-03-04T19:22:45.893Z,70.96
2023-03-04T19:25:14.382Z,70.11
2023-03-04T19:27:43.850Z,70.28
2023-03-04T19:30:13.388Z,70.01
2023-03-04T19:32:41.798Z,69.90
2023-03-04T19:35:10.609Z,69.76
2023-03-04T19:37:38.759Z,70.25
2023-03-04T19:40:11.023Z,70.05
2023-03-04T19:42:46.943Z,70.19
2023-03-04T19:45:15.181Z,70.25
2023-03-04T19:47:52.691Z,69.91
2023-03-04T19:50:42.254Z,69.54
2023-03-04T19:53:12.250Z,69.35
2023-03-04T19:55:40.525Z,70.07
2023-03-04T19:58:10.545Z,69.91
2023-03-04T20:00:38.588Z,69.39
2023-03-04T20:03:07.786Z,69.87
2023-03-04T20:05:36.829Z,69.91
2023-03-04T20:08:05.677Z,69.79
2023-03-04T20:10:40.727Z,69.38
2023-03-04T20:13:12.956Z,70.09
2023-03-04T20:15:43.884Z,69.74
2023-03-04T20:18:17.434Z,69.37
2023-03-04T20:21:06.695Z,69.58
2023-03-04T20:23:34.950Z,69.10
2023-03-04T20:26:09.179Z,69.43
2023-03-04T20:28:52.697Z,69.65
2023-03-04T20:31:23.422Z,70.56
2023-03-04T20:33:52.453Z,69.72
2023-03-04T20:36:32.267Z,69.65
2023-03-04T20:39:28.604Z,69.39
2023-03-04T20:41:58.074Z,69.62
2023-03-04T20:44:28.214Z,68.60
2023-03-04T20:46:56.752Z,68.04
2023-03-04T20:49:27.312Z,67.81
2023-03-04T20:51:58.088Z,67.48
2023-03-04T20:54:35.005Z,67.52
2023-03-04T20:57:40.026Z,67.25
2023-03-04T21:00:38.305Z,68.43
2023-03-04T21:03:08.833Z,69.32
2023-03-04T21:05:36.876Z,70.30
2023-03-04T21:08:04.858Z,70.72
2023-03-04T21:10:36.576Z,71.13
2023-03-04T21:13:05.586Z,70.85
2023-03-04T21:15:35.137Z,69.78
2023-03-04T21:18:03.325Z,70.08
2023-03-04T21:20:34.201Z,70.24
2023-03-04T21:23:02.264Z,70.73
2023-03-04T21:25:30.269Z,70.54
2023-03-04T21:27:58.384Z,70.31
2023-03-04T21:30:26.486Z,70.44
2023-03-04T21:32:56.085Z,71.00
2023-03-04T21:35:24.387Z,70.82
2023-03-04T21:37:52.541Z,70.93
2023-03-04T21:40:20.802Z,70.81
2023-03-04T21:42:51.085Z,70.87
2023-03-04T21:45:19.621Z,70.84
2023-03-04T21:47:49.353Z,71.18
2023-03-04T21:50:18.969Z,70.61
2023-03-04T21:52:46.896Z,70.75
2023-03-04T21:55:18.016Z,69.92
2023-03-04T21:57:45.993Z,69.72
2023-03-04T22:00:16.092Z,69.52
2023-03-04T22:02:44.171Z,69.32
2023-03-04T22:05:12.395Z,69.20
2023-03-04T22:07:41.892Z,69.64
2023-03-04T22:10:12.712Z,69.61
2023-03-04T22:12:43.610Z,69.20
2023-03-04T22:15:12.507Z,69.67
2023-03-04T22:17:41.561Z,69.34
2023-03-04T22:20:11.294Z,69.44
2023-03-04T22:22:39.197Z,69.37
2023-03-04T22:25:10.213Z,68.98
2023-03-04T22:27:38.265Z,69.14
2023-03-04T22:30:07.103Z,69.18
2023-03-04T22:32:37.350Z,69.36
2023-03-04T22:35:05.898Z,69.41
2023-03-04T22:37:33.873Z,68.61
2023-03-04T22:40:02.180Z,69.41
2023-03-04T22:42:31.632Z,69.49
2023-03-04T22:44:59.914Z,70.10
2023-03-04T22:47:27.907Z,71.08
2023-03-04T22:49:55.771Z,71.23
2023-03-04T22:52:23.752Z,70.54
2023-03-04T22:54:52.130Z,69.82
2023-03-04T22:57:20.370Z,69.86
2023-03-04T22:59:50.144Z,69.51
2023-03-04T23:02:18.517Z,69.09
2023-03-04T23:04:46.916Z,69.29
2023-03-04T23:07:15.525Z,69.51
2023-03-04T23:09:43.584Z,69.27
2023-03-04T23:12:11.481Z,69.28
2023-03-04T23:14:40.022Z,69.15
2023-03-04T23:17:11.776Z,69.46
2023-03-04T23:19:40.357Z,69.84
2023-03-04T23:22:08.732Z,69.93
2023-03-04T23:24:36.942Z,70.55
2023-03-04T23:27:05.317Z,70.33
2023-03-04T23:29:36.367Z,70.55
2023-03-04T23:32:04.341Z,72.05
2023-03-04T23:34:33.916Z,72.28
2023-03-04T23:37:01.951Z,71.70
2023-03-04T23:39:30.114Z,71.56
2023-03-04T23:41:58.571Z,71.18
2023-03-04T23:44:26.586Z,70.74
2023-03-04T23:46:54.456Z,70.70
2023-03-04T23:49:24.441Z,71.10
2023-03-04T23:51:53.986Z,71.16
2023-03-04T23:54:21.910Z,71.18
2023-03-04T23:56:50.133Z,70.81
2023-03-04T23:59:18.251Z,71.22
